sensor_id;sensor_type;location;lat;lon;timestamp;P1;durP1;ratioP1;P2;durP2;ratioP2
16892;SDS011;8563;52.242;9.098;2023-04-10T00:00:41;27.10;;;22.47;;
16892;SDS011;8563;52.242;9.098;2023-04-10T00:03:14;28.33;;;23.37;;
16892;SDS011;8563;52.242;9.098;2023-04-10T00:05:47;29.53;;;23.57;;
16892;SDS011;8563;52.242;9.098;2023-04-10T00:08:19;28.30;;;22.67;;
16892;SDS011;8563;52.242;9.098;2023-04-10T00:10:51;28.37;;;22.47;;
16892;SDS011;8563;52.242;9.098;2023-04-10T00:13:23;28.87;;;23.47;;
16892;SDS011;8563;52.242;9.098;2023-04-10T00:15:57;32.10;;;24.30;;
16892;SDS011;8563;52.242;9.098;2023-04-10T00:18:29;29.57;;;23.70;;
16892;SDS011;8563;52.242;9.098;2023-04-10T00:21:01;30.10;;;23.80;;
16892;SDS011;8563;52.242;9.098;2023-04-10T00:23:33;30.57;;;24.33;;
16892;SDS011;8563;52.242;9.098;2023-04-10T00:26:06;30.70;;;23.97;;
16892;SDS011;8563;52.242;9.098;2023-04-10T00:28:38;28.73;;;23.90;;
16892;SDS011;8563;52.242;9.098;2023-04-10T00:31:12;30.87;;;24.60;;
16892;SDS011;8563;52.242;9.098;2023-04-10T00:33:45;33.90;;;25.67;;
16892;SDS011;8563;52.242;9.098;2023-04-10T00:36:17;33.57;;;26.17;;
16892;SDS011;8563;52.242;9.098;2023-04-10T00:38:50;31.33;;;24.70;;
16892;SDS011;8563;52.242;9.098;2023-04-10T00:41:22;33.07;;;25.40;;
16892;SDS011;8563;52.242;9.098;2023-04-10T00:43:54;33.10;;;25.47;;
16892;SDS011;8563;52.242;9.098;2023-04-10T00:46:28;32.30;;;25.40;;
16892;SDS011;8563;52.242;9.098;2023-04-10T00:49:02;33.60;;;25.30;;
16892;SDS011;8563;52.242;9.098;2023-04-10T00:51:36;31.87;;;25.93;;
16892;SDS011;8563;52.242;9.098;2023-04-10T00:54:08;30.53;;;25.10;;
16892;SDS011;8563;52.242;9.098;2023-04-10T00:56:42;31.23;;;25.23;;
16892;SDS011;8563;52.242;9.098;2023-04-10T00:59:16;31.40;;;25.23;;
16892;SDS011;8563;52.242;9.098;2023-04-10T01:01:49;32.73;;;25.00;;
16892;SDS011;8563;52.242;9.098;2023-04-10T01:04:22;31.70;;;24.73;;
16892;SDS011;8563;52.242;9.098;2023-04-10T01:06:57;30.97;;;23.83;;
16892;SDS011;8563;52.242;9.098;2023-04-10T01:09:34;31.27;;;24.50;;
16892;SDS011;8563;52.242;9.098;2023-04-10T01:12:14;32.13;;;24.03;;
16892;SDS011;8563;52.242;9.098;2023-04-10T01:15:01;28.27;;;23.27;;
16892;SDS011;8563;52.242;9.098;2023-04-10T01:17:42;28.47;;;23.43;;
16892;SDS011;8563;52.242;9.098;2023-04-10T01:20:21;29.83;;;23.37;;
16892;SDS011;8563;52.242;9.098;2023-04-10T01:23:11;28.93;;;23.23;;
16892;SDS011;8563;52.242;9.098;2023-04-10T01:25:58;28.30;;;23.77;;
16892;SDS011;8563;52.242;9.098;2023-04-10T01:28:50;29.50;;;23.10;;
16892;SDS011;8563;52.242;9.098;2023-04-10T01:31:26;27.43;;;21.87;;
16892;SDS011;8563;52.242;9.098;2023-04-10T01:34:04;25.87;;;21.77;;
16892;SDS011;8563;52.242;9.098;2023-04-10T01:36:41;25.77;;;21.40;;
16892;SDS011;8563;52.242;9.098;2023-04-10T01:39:20;26.47;;;21.93;;
16892;SDS011;8563;52.242;9.098;2023-04-10T01:41:53;24.67;;;20.17;;
16892;SDS011;8563;52.242;9.098;2023-04-10T01:44:41;24.23;;;20.50;;
16892;SDS011;8563;52.242;9.098;2023-04-10T01:47:14;24.13;;;19.87;;
16892;SDS011;8563;52.242;9.098;2023-04-10T01:49:48;25.80;;;21.07;;
16892;SDS011;8563;52.242;9.098;2023-04-10T01:52:21;25.03;;;20.60;;
16892;SDS011;8563;52.242;9.098;2023-04-10T01:55:05;27.83;;;19.67;;
16892;SDS011;8563;52.242;9.098;2023-04-10T01:57:47;22.73;;;19.10;;
16892;SDS011;8563;52.242;9.098;2023-04-10T02:00:22;22.97;;;18.90;;
16892;SDS011;8563;52.242;9.098;2023-04-10T02:02:55;24.30;;;19.33;;
16892;SDS011;8563;52.242;9.098;2023-04-10T02:05:30;24.03;;;19.77;;
16892;SDS011;8563;52.242;9.098;2023-04-10T02:08:17;25.10;;;19.13;;
16892;SDS011;8563;52.242;9.098;2023-04-10T02:10:55;22.67;;;18.60;;
16892;SDS011;8563;52.242;9.098;2023-04-10T02:13:34;24.67;;;19.70;;
16892;SDS011;8563;52.242;9.098;2023-04-10T02:16:11;24.77;;;19.97;;
16892;SDS011;8563;52.242;9.098;2023-04-10T02:18:46;22.33;;;19.10;;
16892;SDS011;8563;52.242;9.098;2023-04-10T02:21:20;22.03;;;19.33;;
16892;SDS011;8563;52.242;9.098;2023-04-10T02:23:52;23.90;;;20.13;;
16892;SDS011;8563;52.242;9.098;2023-04-10T02:26:27;23.63;;;19.90;;
16892;SDS011;8563;52.242;9.098;2023-04-10T02:28:59;24.40;;;20.03;;
16892;SDS011;8563;52.242;9.098;2023-04-10T02:31:32;22.87;;;19.37;;
16892;SDS011;8563;52.242;9.098;2023-04-10T02:34:05;22.30;;;19.43;;
16892;SDS011;8563;52.242;9.098;2023-04-10T02:36:37;21.20;;;18.43;;
16892;SDS011;8563;52.242;9.098;2023-04-10T02:39:11;23.50;;;19.57;;
16892;SDS011;8563;52.242;9.098;2023-04-10T02:41:55;22.43;;;18.50;;
16892;SDS011;8563;52.242;9.098;2023-04-10T02:44:27;21.93;;;18.93;;
16892;SDS011;8563;52.242;9.098;2023-04-10T02:47:00;21.63;;;18.93;;
16892;SDS011;8563;52.242;9.098;2023-04-10T02:49:35;21.90;;;18.87;;
16892;SDS011;8563;52.242;9.098;2023-04-10T02:52:14;21.73;;;18.47;;
16892;SDS011;8563;52.242;9.098;2023-04-10T02:54:47;21.70;;;17.90;;
16892;SDS011;8563;52.242;9.098;2023-04-10T02:57:20;20.13;;;17.50;;
16892;SDS011;8563;52.242;9.098;2023-04-10T02:59:52;21.40;;;17.03;;
16892;SDS011;8563;52.242;9.098;2023-04-10T03:02:28;20.00;;;17.40;;
16892;SDS011;8563;52.242;9.098;2023-04-10T03:05:02;19.57;;;17.40;;
16892;SDS011;8563;52.242;9.098;2023-04-10T03:07:35;21.70;;;17.70;;
16892;SDS011;8563;52.242;9.098;2023-04-10T03:10:07;21.00;;;18.00;;
16892;SDS011;8563;52.242;9.098;2023-04-10T03:12:40;21.83;;;18.87;;
16892;SDS011;8563;52.242;9.098;2023-04-10T03:15:12;19.20;;;16.80;;
16892;SDS011;8563;52.242;9.098;2023-04-10T03:17:46;23.53;;;18.80;;
16892;SDS011;8563;52.242;9.098;2023-04-10T03:20:19;21.63;;;18.17;;
16892;SDS011;8563;52.242;9.098;2023-04-10T03:22:52;20.57;;;18.23;;
16892;SDS011;8563;52.242;9.098;2023-04-10T03:25:24;20.77;;;18.50;;
16892;SDS011;8563;52.242;9.098;2023-04-10T03:27:56;21.13;;;17.80;;
16892;SDS011;8563;52.242;9.098;2023-04-10T03:30:28;20.87;;;17.43;;
16892;SDS011;8563;52.242;9.098;2023-04-10T03:33:02;20.20;;;17.53;;
16892;SDS011;8563;52.242;9.098;2023-04-10T03:35:35;20.40;;;17.83;;
16892;SDS011;8563;52.242;9.098;2023-04-10T03:38:07;19.77;;;17.23;;
16892;SDS011;8563;52.242;9.098;2023-04-10T03:40:39;21.00;;;17.93;;
16892;SDS011;8563;52.242;9.098;2023-04-10T03:43:13;19.90;;;16.77;;
16892;SDS011;8563;52.242;9.098;2023-04-10T03:45:45;20.27;;;17.90;;
16892;SDS011;8563;52.242;9.098;2023-04-10T03:48:20;20.30;;;17.50;;
16892;SDS011;8563;52.242;9.098;2023-04-10T03:50:53;21.20;;;17.77;;
16892;SDS011;8563;52.242;9.098;2023-04-10T03:53:26;19.70;;;17.07;;
16892;SDS011;8563;52.242;9.098;2023-04-10T03:55:58;20.40;;;17.10;;
16892;SDS011;8563;52.242;9.098;2023-04-10T03:58:30;19.20;;;16.70;;
16892;SDS011;8563;52.242;9.098;2023-04-10T04:01:04;19.57;;;17.17;;
16892;SDS011;8563;52.242;9.098;2023-04-10T04:03:44;19.57;;;17.40;;
16892;SDS011;8563;52.242;9.098;2023-04-10T04:06:31;18.73;;;16.70;;
16892;SDS011;8563;52.242;9.098;2023-04-10T04:09:15;21.33;;;18.10;;
16892;SDS011;8563;52.242;9.098;2023-04-10T04:12:18;21.13;;;18.03;;
16892;SDS011;8563;52.242;9.098;2023-04-10T04:15:05;18.30;;;16.00;;
16892;SDS011;8563;52.242;9.098;2023-04-10T04:17:50;19.30;;;16.43;;
16892;SDS011;8563;52.242;9.098;2023-04-10T04:20:42;18.83;;;16.43;;
16892;SDS011;8563;52.242;9.098;2023-04-10T04:23:34;19.47;;;16.83;;
16892;SDS011;8563;52.242;9.098;2023-04-10T04:26:24;19.57;;;16.33;;
16892;SDS011;8563;52.242;9.098;2023-04-10T04:29:32;18.90;;;16.60;;
16892;SDS011;8563;52.242;9.098;2023-04-10T04:32:20;21.60;;;17.13;;
16892;SDS011;8563;52.242;9.098;2023-04-10T04:35:15;20.20;;;16.63;;
16892;SDS011;8563;52.242;9.098;2023-04-10T04:38:17;19.53;;;16.43;;
16892;SDS011;8563;52.242;9.098;2023-04-10T04:41:21;18.80;;;16.27;;
16892;SDS011;8563;52.242;9.098;2023-04-10T04:44:12;17.73;;;15.70;;
16892;SDS011;8563;52.242;9.098;2023-04-10T04:47:07;17.60;;;15.33;;
16892;SDS011;8563;52.242;9.098;2023-04-10T04:49:57;16.77;;;14.97;;
16892;SDS011;8563;52.242;9.098;2023-04-10T04:52:50;18.63;;;16.07;;
16892;SDS011;8563;52.242;9.098;2023-04-10T04:55:31;19.03;;;16.17;;
16892;SDS011;8563;52.242;9.098;2023-04-10T04:58:32;18.80;;;16.33;;
16892;SDS011;8563;52.242;9.098;2023-04-10T05:01:34;18.83;;;15.90;;
16892;SDS011;8563;52.242;9.098;2023-04-10T05:04:28;18.77;;;15.97;;
16892;SDS011;8563;52.242;9.098;2023-04-10T05:07:16;19.37;;;16.60;;
16892;SDS011;8563;52.242;9.098;2023-04-10T05:10:14;19.20;;;16.33;;
16892;SDS011;8563;52.242;9.098;2023-04-10T05:13:04;22.33;;;15.97;;
16892;SDS011;8563;52.242;9.098;2023-04-10T05:15:50;18.30;;;15.57;;
16892;SDS011;8563;52.242;9.098;2023-04-10T05:18:48;17.80;;;15.67;;
16892;SDS011;8563;52.242;9.098;2023-04-10T05:21:59;16.53;;;14.73;;
16892;SDS011;8563;52.242;9.098;2023-04-10T05:24:54;17.70;;;15.80;;
16892;SDS011;8563;52.242;9.098;2023-04-10T05:27:41;19.23;;;14.77;;
16892;SDS011;8563;52.242;9.098;2023-04-10T05:30:33;17.10;;;14.63;;
16892;SDS011;8563;52.242;9.098;2023-04-10T05:33:14;17.70;;;15.30;;
16892;SDS011;8563;52.242;9.098;2023-04-10T05:36:06;16.73;;;15.03;;
16892;SDS011;8563;52.242;9.098;2023-04-10T05:38:53;16.93;;;14.90;;
16892;SDS011;8563;52.242;9.098;2023-04-10T05:41:57;16.57;;;14.23;;
16892;SDS011;8563;52.242;9.098;2023-04-10T05:44:34;16.37;;;14.57;;
16892;SDS011;8563;52.242;9.098;2023-04-10T05:47:11;16.00;;;13.33;;
16892;SDS011;8563;52.242;9.098;2023-04-10T05:49:43;16.40;;;14.63;;
16892;SDS011;8563;52.242;9.098;2023-04-10T05:52:34;14.93;;;13.30;;
16892;SDS011;8563;52.242;9.098;2023-04-10T05:55:26;15.20;;;13.60;;
16892;SDS011;8563;52.242;9.098;2023-04-10T05:58:19;15.63;;;13.50;;
16892;SDS011;8563;52.242;9.098;2023-04-10T06:01:05;15.37;;;13.77;;
16892;SDS011;8563;52.242;9.098;2023-04-10T06:03:59;15.77;;;14.03;;
16892;SDS011;8563;52.242;9.098;2023-04-10T06:06:33;14.90;;;13.40;;
16892;SDS011;8563;52.242;9.098;2023-04-10T06:09:05;15.30;;;13.33;;
16892;SDS011;8563;52.242;9.098;2023-04-10T06:11:37;14.90;;;13.40;;
16892;SDS011;8563;52.242;9.098;2023-04-10T06:14:10;18.37;;;13.50;;
16892;SDS011;8563;52.242;9.098;2023-04-10T06:16:47;14.93;;;13.10;;
16892;SDS011;8563;52.242;9.098;2023-04-10T06:19:20;14.90;;;13.07;;
16892;SDS011;8563;52.242;9.098;2023-04-10T06:21:52;15.43;;;12.80;;
16892;SDS011;8563;52.242;9.098;2023-04-10T06:24:24;17.60;;;12.70;;
16892;SDS011;8563;52.242;9.098;2023-04-10T06:26:58;13.43;;;11.73;;
16892;SDS011;8563;52.242;9.098;2023-04-10T06:29:31;13.57;;;12.17;;
16892;SDS011;8563;52.242;9.098;2023-04-10T06:32:03;13.43;;;12.03;;
16892;SDS011;8563;52.242;9.098;2023-04-10T06:34:40;13.23;;;11.90;;
16892;SDS011;8563;52.242;9.098;2023-04-10T06:37:14;12.93;;;11.63;;
16892;SDS011;8563;52.242;9.098;2023-04-10T06:39:46;14.37;;;11.70;;
16892;SDS011;8563;52.242;9.098;2023-04-10T06:42:18;13.83;;;12.10;;
16892;SDS011;8563;52.242;9.098;2023-04-10T06:45:03;12.93;;;11.63;;
16892;SDS011;8563;52.242;9.098;2023-04-10T06:47:35;12.70;;;11.40;;
16892;SDS011;8563;52.242;9.098;2023-04-10T06:50:09;13.13;;;11.73;;
16892;SDS011;8563;52.242;9.098;2023-04-10T06:52:42;12.03;;;10.83;;
16892;SDS011;8563;52.242;9.098;2023-04-10T06:55:14;12.10;;;10.80;;
16892;SDS011;8563;52.242;9.098;2023-04-10T06:57:46;12.20;;;11.00;;
16892;SDS011;8563;52.242;9.098;2023-04-10T07:00:19;12.37;;;11.17;;
16892;SDS011;8563;52.242;9.098;2023-04-10T07:02:51;12.70;;;11.40;;
16892;SDS011;8563;52.242;9.098;2023-04-10T07:05:24;13.13;;;11.83;;
16892;SDS011;8563;52.242;9.098;2023-04-10T07:07:56;13.63;;;11.13;;
16892;SDS011;8563;52.242;9.098;2023-04-10T07:10:30;13.23;;;11.83;;
16892;SDS011;8563;52.242;9.098;2023-04-10T07:13:02;14.67;;;12.00;;
16892;SDS011;8563;52.242;9.098;2023-04-10T07:15:34;12.57;;;11.27;;
16892;SDS011;8563;52.242;9.098;2023-04-10T07:18:06;12.47;;;11.17;;
16892;SDS011;8563;52.242;9.098;2023-04-10T07:20:40;12.27;;;10.83;;
16892;SDS011;8563;52.242;9.098;2023-04-10T07:23:12;12.80;;;11.60;;
16892;SDS011;8563;52.242;9.098;2023-04-10T07:25:45;12.63;;;11.33;;
16892;SDS011;8563;52.242;9.098;2023-04-10T07:28:17;12.13;;;10.93;;
16892;SDS011;8563;52.242;9.098;2023-04-10T07:30:49;12.47;;;11.10;;
16892;SDS011;8563;52.242;9.098;2023-04-10T07:33:21;12.47;;;11.17;;
16892;SDS011;8563;52.242;9.098;2023-04-10T07:35:54;13.43;;;12.00;;
16892;SDS011;8563;52.242;9.098;2023-04-10T07:38:27;13.00;;;11.47;;
16892;SDS011;8563;52.242;9.098;2023-04-10T07:40:59;13.13;;;11.33;;
16892;SDS011;8563;52.242;9.098;2023-04-10T07:43:31;12.53;;;11.30;;
16892;SDS011;8563;52.242;9.098;2023-04-10T07:46:03;13.33;;;11.93;;
16892;SDS011;8563;52.242;9.098;2023-04-10T07:48:36;13.17;;;11.87;;
16892;SDS011;8563;52.242;9.098;2023-04-10T07:51:09;12.93;;;11.63;;
16892;SDS011;8563;52.242;9.098;2023-04-10T07:53:41;13.03;;;11.73;;
16892;SDS011;8563;52.242;9.098;2023-04-10T07:56:14;13.90;;;12.10;;
16892;SDS011;8563;52.242;9.098;2023-04-10T07:58:47;12.40;;;11.20;;
16892;SDS011;8563;52.242;9.098;2023-04-10T08:01:20;13.13;;;11.73;;
16892;SDS011;8563;52.242;9.098;2023-04-10T08:03:52;12.93;;;11.63;;
16892;SDS011;8563;52.242;9.098;2023-04-10T08:06:26;13.33;;;11.50;;
16892;SDS011;8563;52.242;9.098;2023-04-10T08:08:58;12.60;;;11.10;;
16892;SDS011;8563;52.242;9.098;2023-04-10T08:11:31;12.93;;;11.60;;
16892;SDS011;8563;52.242;9.098;2023-04-10T08:14:04;13.77;;;12.13;;
16892;SDS011;8563;52.242;9.098;2023-04-10T08:16:36;12.83;;;11.50;;
16892;SDS011;8563;52.242;9.098;2023-04-10T08:19:09;13.57;;;12.17;;
16892;SDS011;8563;52.242;9.098;2023-04-10T08:21:42;12.47;;;11.20;;
16892;SDS011;8563;52.242;9.098;2023-04-10T08:24:14;12.63;;;11.43;;
16892;SDS011;8563;52.242;9.098;2023-04-10T08:26:49;12.13;;;10.57;;
16892;SDS011;8563;52.242;9.098;2023-04-10T08:29:21;12.70;;;11.40;;
16892;SDS011;8563;52.242;9.098;2023-04-10T08:31:53;12.07;;;10.87;;
16892;SDS011;8563;52.242;9.098;2023-04-10T08:34:25;12.27;;;11.07;;
16892;SDS011;8563;52.242;9.098;2023-04-10T08:37:04;12.00;;;10.53;;
16892;SDS011;8563;52.242;9.098;2023-04-10T08:39:37;12.10;;;10.90;;
16892;SDS011;8563;52.242;9.098;2023-04-10T08:42:09;12.20;;;10.03;;
16892;SDS011;8563;52.242;9.098;2023-04-10T08:44:42;11.20;;;10.03;;
16892;SDS011;8563;52.242;9.098;2023-04-10T08:47:15;12.07;;;10.87;;
16892;SDS011;8563;52.242;9.098;2023-04-10T08:49:52;11.17;;;10.00;;
16892;SDS011;8563;52.242;9.098;2023-04-10T08:52:28;11.13;;;9.97;;
16892;SDS011;8563;52.242;9.098;2023-04-10T08:55:01;11.17;;;10.03;;
16892;SDS011;8563;52.242;9.098;2023-04-10T08:57:38;10.30;;;9.30;;
16892;SDS011;8563;52.242;9.098;2023-04-10T09:00:11;11.47;;;10.37;;
16892;SDS011;8563;52.242;9.098;2023-04-10T09:02:44;10.60;;;9.60;;
16892;SDS011;8563;52.242;9.098;2023-04-10T09:05:16;10.63;;;9.63;;
16892;SDS011;8563;52.242;9.098;2023-04-10T09:07:50;11.37;;;10.27;;
16892;SDS011;8563;52.242;9.098;2023-04-10T09:10:22;10.40;;;9.40;;
16892;SDS011;8563;52.242;9.098;2023-04-10T09:12:55;10.10;;;9.13;;
16892;SDS011;8563;52.242;9.098;2023-04-10T09:15:27;10.10;;;9.10;;
16892;SDS011;8563;52.242;9.098;2023-04-10T09:18:00;9.47;;;8.50;;
16892;SDS011;8563;52.242;9.098;2023-04-10T09:20:33;8.80;;;8.00;;
16892;SDS011;8563;52.242;9.098;2023-04-10T09:23:19;8.47;;;7.67;;
16892;SDS011;8563;52.242;9.098;2023-04-10T09:25:52;10.67;;;8.00;;
16892;SDS011;8563;52.242;9.098;2023-04-10T09:28:24;9.03;;;8.13;;
16892;SDS011;8563;52.242;9.098;2023-04-10T09:30:56;9.00;;;8.20;;
16892;SDS011;8563;52.242;9.098;2023-04-10T09:33:28;9.20;;;7.80;;
16892;SDS011;8563;52.242;9.098;2023-04-10T09:36:00;8.30;;;7.50;;
16892;SDS011;8563;52.242;9.098;2023-04-10T09:38:34;9.23;;;7.17;;
16892;SDS011;8563;52.242;9.098;2023-04-10T09:41:07;8.10;;;7.30;;
16892;SDS011;8563;52.242;9.098;2023-04-10T09:43:40;7.93;;;7.23;;
16892;SDS011;8563;52.242;9.098;2023-04-10T09:46:18;7.33;;;6.63;;
16892;SDS011;8563;52.242;9.098;2023-04-10T09:48:57;7.73;;;7.03;;
16892;SDS011;8563;52.242;9.098;2023-04-10T09:51:32;8.30;;;7.50;;
16892;SDS011;8563;52.242;9.098;2023-04-10T09:54:07;8.47;;;7.67;;
16892;SDS011;8563;52.242;9.098;2023-04-10T09:56:39;7.77;;;7.07;;
16892;SDS011;8563;52.242;9.098;2023-04-10T09:59:15;7.83;;;7.13;;
16892;SDS011;8563;52.242;9.098;2023-04-10T10:01:48;8.33;;;7.50;;
16892;SDS011;8563;52.242;9.098;2023-04-10T10:04:20;7.60;;;6.90;;
16892;SDS011;8563;52.242;9.098;2023-04-10T10:06:53;7.87;;;7.10;;
16892;SDS011;8563;52.242;9.098;2023-04-10T10:09:27;8.00;;;7.30;;
16892;SDS011;8563;52.242;9.098;2023-04-10T10:11:59;8.50;;;7.70;;
16892;SDS011;8563;52.242;9.098;2023-04-10T10:14:32;8.37;;;7.67;;
16892;SDS011;8563;52.242;9.098;2023-04-10T10:17:07;9.30;;;8.20;;
16892;SDS011;8563;52.242;9.098;2023-04-10T10:19:44;8.10;;;7.30;;
16892;SDS011;8563;52.242;9.098;2023-04-10T10:22:21;10.77;;;7.57;;
16892;SDS011;8563;52.242;9.098;2023-04-10T10:24:59;8.37;;;7.17;;
16892;SDS011;8563;52.242;9.098;2023-04-10T10:27:35;8.40;;;7.20;;
16892;SDS011;8563;52.242;9.098;2023-04-10T10:30:08;7.50;;;6.67;;
16892;SDS011;8563;52.242;9.098;2023-04-10T10:32:43;6.93;;;6.33;;
16892;SDS011;8563;52.242;9.098;2023-04-10T10:35:17;6.60;;;6.00;;
16892;SDS011;8563;52.242;9.098;2023-04-10T10:37:49;7.30;;;6.70;;
16892;SDS011;8563;52.242;9.098;2023-04-10T10:40:23;7.30;;;6.60;;
16892;SDS011;8563;52.242;9.098;2023-04-10T10:43:04;7.53;;;6.83;;
16892;SDS011;8563;52.242;9.098;2023-04-10T10:45:45;6.53;;;5.93;;
16892;SDS011;8563;52.242;9.098;2023-04-10T10:48:22;6.87;;;5.70;;
16892;SDS011;8563;52.242;9.098;2023-04-10T10:50:55;7.50;;;5.83;;
16892;SDS011;8563;52.242;9.098;2023-04-10T10:53:32;6.70;;;6.10;;
16892;SDS011;8563;52.242;9.098;2023-04-10T10:59:06;7.03;;;5.00;;
16892;SDS011;8563;52.242;9.098;2023-04-10T11:01:39;6.20;;;5.67;;
16892;SDS011;8563;52.242;9.098;2023-04-10T11:04:43;6.27;;;5.77;;
16892;SDS011;8563;52.242;9.098;2023-04-10T11:07:16;5.53;;;4.93;;
16892;SDS011;8563;52.242;9.098;2023-04-10T11:09:49;5.67;;;5.17;;
16892;SDS011;8563;52.242;9.098;2023-04-10T11:12:24;5.87;;;5.33;;
16892;SDS011;8563;52.242;9.098;2023-04-10T11:14:57;5.60;;;5.10;;
16892;SDS011;8563;52.242;9.098;2023-04-10T11:17:45;5.70;;;5.20;;
16892;SDS011;8563;52.242;9.098;2023-04-10T11:20:20;5.60;;;5.10;;
16892;SDS011;8563;52.242;9.098;2023-04-10T11:23:06;6.60;;;5.37;;
16892;SDS011;8563;52.242;9.098;2023-04-10T11:25:46;5.43;;;4.93;;
16892;SDS011;8563;52.242;9.098;2023-04-10T11:28:38;5.07;;;4.57;;
16892;SDS011;8563;52.242;9.098;2023-04-10T11:31:13;5.10;;;4.60;;
16892;SDS011;8563;52.242;9.098;2023-04-10T11:33:49;4.83;;;4.43;;
16892;SDS011;8563;52.242;9.098;2023-04-10T11:36:32;4.73;;;4.33;;
16892;SDS011;8563;52.242;9.098;2023-04-10T11:39:06;5.20;;;4.67;;
16892;SDS011;8563;52.242;9.098;2023-04-10T11:41:39;7.07;;;4.60;;
16892;SDS011;8563;52.242;9.098;2023-04-10T11:44:15;4.55;;;4.15;;
16892;SDS011;8563;52.242;9.098;2023-04-10T11:46:50;4.43;;;4.03;;
16892;SDS011;8563;52.242;9.098;2023-04-10T11:49:23;4.83;;;4.43;;
16892;SDS011;8563;52.242;9.098;2023-04-10T11:51:57;4.38;;;3.97;;
16892;SDS011;8563;52.242;9.098;2023-04-10T11:54:29;4.97;;;4.07;;
16892;SDS011;8563;52.242;9.098;2023-04-10T11:57:02;5.45;;;4.82;;
16892;SDS011;8563;52.242;9.098;2023-04-10T11:59:36;5.05;;;4.20;;
16892;SDS011;8563;52.242;9.098;2023-04-10T12:02:09;4.90;;;4.43;;
16892;SDS011;8563;52.242;9.098;2023-04-10T12:04:43;7.03;;;4.63;;
16892;SDS011;8563;52.242;9.098;2023-04-10T12:07:16;4.57;;;4.18;;
16892;SDS011;8563;52.242;9.098;2023-04-10T12:09:54;4.57;;;4.22;;
16892;SDS011;8563;52.242;9.098;2023-04-10T12:12:33;5.35;;;4.88;;
16892;SDS011;8563;52.242;9.098;2023-04-10T12:17:58;4.90;;;4.50;;
16892;SDS011;8563;52.242;9.098;2023-04-10T12:20:30;4.72;;;4.32;;
16892;SDS011;8563;52.242;9.098;2023-04-10T12:23:03;4.53;;;4.13;;
16892;SDS011;8563;52.242;9.098;2023-04-10T12:25:36;5.43;;;4.53;;
16892;SDS011;8563;52.242;9.098;2023-04-10T12:28:14;4.90;;;4.50;;
16892;SDS011;8563;52.242;9.098;2023-04-10T12:30:50;4.55;;;4.15;;
16892;SDS011;8563;52.242;9.098;2023-04-10T12:33:23;5.97;;;4.18;;
16892;SDS011;8563;52.242;9.098;2023-04-10T12:35:55;4.30;;;3.90;;
16892;SDS011;8563;52.242;9.098;2023-04-10T12:38:35;4.88;;;4.40;;
16892;SDS011;8563;52.242;9.098;2023-04-10T12:41:11;7.35;;;4.80;;
16892;SDS011;8563;52.242;9.098;2023-04-10T12:43:43;4.90;;;4.25;;
16892;SDS011;8563;52.242;9.098;2023-04-10T12:46:23;4.93;;;4.28;;
16892;SDS011;8563;52.242;9.098;2023-04-10T12:48:56;4.60;;;4.20;;
16892;SDS011;8563;52.242;9.098;2023-04-10T12:51:43;5.25;;;4.75;;
16892;SDS011;8563;52.242;9.098;2023-04-10T12:54:26;4.97;;;4.57;;
16892;SDS011;8563;52.242;9.098;2023-04-10T12:57:00;5.03;;;4.60;;
16892;SDS011;8563;52.242;9.098;2023-04-10T12:59:33;7.55;;;5.22;;
16892;SDS011;8563;52.242;9.098;2023-04-10T13:02:06;6.60;;;5.20;;
16892;SDS011;8563;52.242;9.098;2023-04-10T13:04:38;6.05;;;5.55;;
16892;SDS011;8563;52.242;9.098;2023-04-10T13:07:10;7.80;;;5.05;;
16892;SDS011;8563;52.242;9.098;2023-04-10T13:09:42;5.78;;;5.28;;
16892;SDS011;8563;52.242;9.098;2023-04-10T13:12:15;5.38;;;4.90;;
16892;SDS011;8563;52.242;9.098;2023-04-10T13:14:47;5.53;;;5.03;;
16892;SDS011;8563;52.242;9.098;2023-04-10T13:17:20;5.25;;;4.75;;
16892;SDS011;8563;52.242;9.098;2023-04-10T13:19:53;4.85;;;4.45;;
16892;SDS011;8563;52.242;9.098;2023-04-10T13:22:25;4.25;;;3.83;;
16892;SDS011;8563;52.242;9.098;2023-04-10T13:24:57;4.15;;;3.85;;
16892;SDS011;8563;52.242;9.098;2023-04-10T13:27:29;4.57;;;4.18;;
16892;SDS011;8563;52.242;9.098;2023-04-10T13:30:02;4.85;;;4.10;;
16892;SDS011;8563;52.242;9.098;2023-04-10T13:32:35;4.90;;;4.10;;
16892;SDS011;8563;52.242;9.098;2023-04-10T13:35:08;4.20;;;3.90;;
16892;SDS011;8563;52.242;9.098;2023-04-10T13:37:40;4.45;;;4.03;;
16892;SDS011;8563;52.242;9.098;2023-04-10T13:40:12;5.82;;;4.40;;
16892;SDS011;8563;52.242;9.098;2023-04-10T13:42:44;3.75;;;3.45;;
16892;SDS011;8563;52.242;9.098;2023-04-10T13:45:17;4.03;;;3.63;;
16892;SDS011;8563;52.242;9.098;2023-04-10T13:47:50;3.50;;;3.20;;
16892;SDS011;8563;52.242;9.098;2023-04-10T13:50:23;3.65;;;3.30;;
16892;SDS011;8563;52.242;9.098;2023-04-10T13:52:55;5.72;;;3.70;;
16892;SDS011;8563;52.242;9.098;2023-04-10T13:55:27;3.95;;;3.65;;
16892;SDS011;8563;52.242;9.098;2023-04-10T13:57:59;4.65;;;3.47;;
16892;SDS011;8563;52.242;9.098;2023-04-10T14:00:31;3.92;;;3.63;;
16892;SDS011;8563;52.242;9.098;2023-04-10T14:03:05;5.53;;;3.70;;
16892;SDS011;8563;52.242;9.098;2023-04-10T14:05:39;3.60;;;3.30;;
16892;SDS011;8563;52.242;9.098;2023-04-10T14:08:11;3.78;;;3.38;;
16892;SDS011;8563;52.242;9.098;2023-04-10T14:10:46;3.40;;;3.10;;
16892;SDS011;8563;52.242;9.098;2023-04-10T14:13:20;2.88;;;2.67;;
16892;SDS011;8563;52.242;9.098;2023-04-10T14:15:52;2.65;;;2.45;;
16892;SDS011;8563;52.242;9.098;2023-04-10T14:18:25;4.57;;;3.00;;
16892;SDS011;8563;52.242;9.098;2023-04-10T14:20:58;3.03;;;2.83;;
16892;SDS011;8563;52.242;9.098;2023-04-10T14:23:30;4.57;;;3.85;;
16892;SDS011;8563;52.242;9.098;2023-04-10T14:26:03;9.80;;;8.80;;
16892;SDS011;8563;52.242;9.098;2023-04-10T14:28:36;13.20;;;10.13;;
16892;SDS011;8563;52.242;9.098;2023-04-10T14:31:08;6.63;;;5.07;;
16892;SDS011;8563;52.242;9.098;2023-04-10T14:33:42;5.65;;;5.05;;
16892;SDS011;8563;52.242;9.098;2023-04-10T14:36:15;6.80;;;5.78;;
16892;SDS011;8563;52.242;9.098;2023-04-10T14:38:47;5.60;;;5.00;;
16892;SDS011;8563;52.242;9.098;2023-04-10T14:41:19;6.38;;;4.75;;
16892;SDS011;8563;52.242;9.098;2023-04-10T14:43:52;7.30;;;6.47;;
16892;SDS011;8563;52.242;9.098;2023-04-10T14:46:24;9.45;;;8.00;;
16892;SDS011;8563;52.242;9.098;2023-04-10T14:48:57;8.27;;;7.13;;
16892;SDS011;8563;52.242;9.098;2023-04-10T14:51:30;8.80;;;6.90;;
16892;SDS011;8563;52.242;9.098;2023-04-10T14:54:02;9.55;;;7.13;;
16892;SDS011;8563;52.242;9.098;2023-04-10T14:56:35;4.15;;;3.75;;
16892;SDS011;8563;52.242;9.098;2023-04-10T14:59:07;2.95;;;2.70;;
16892;SDS011;8563;52.242;9.098;2023-04-10T15:01:39;3.00;;;2.30;;
16892;SDS011;8563;52.242;9.098;2023-04-10T15:04:13;2.60;;;2.40;;
16892;SDS011;8563;52.242;9.098;2023-04-10T15:06:45;3.85;;;2.28;;
16892;SDS011;8563;52.242;9.098;2023-04-10T15:09:17;1.83;;;1.67;;
16892;SDS011;8563;52.242;9.098;2023-04-10T15:11:49;3.15;;;2.00;;
16892;SDS011;8563;52.242;9.098;2023-04-10T15:14:21;1.80;;;1.70;;
16892;SDS011;8563;52.242;9.098;2023-04-10T15:16:53;1.98;;;1.77;;
16892;SDS011;8563;52.242;9.098;2023-04-10T15:19:27;1.98;;;1.88;;
16892;SDS011;8563;52.242;9.098;2023-04-10T15:21:59;2.10;;;1.88;;
16892;SDS011;8563;52.242;9.098;2023-04-10T15:24:31;2.67;;;1.90;;
16892;SDS011;8563;52.242;9.098;2023-04-10T15:27:03;6.03;;;2.33;;
16892;SDS011;8563;52.242;9.098;2023-04-10T15:29:35;2.22;;;1.90;;
16892;SDS011;8563;52.242;9.098;2023-04-10T15:32:09;2.17;;;1.83;;
16892;SDS011;8563;52.242;9.098;2023-04-10T15:34:42;3.80;;;1.80;;
16892;SDS011;8563;52.242;9.098;2023-04-10T15:37:15;2.17;;;1.98;;
16892;SDS011;8563;52.242;9.098;2023-04-10T15:39:47;2.20;;;1.70;;
16892;SDS011;8563;52.242;9.098;2023-04-10T15:42:19;2.70;;;2.08;;
16892;SDS011;8563;52.242;9.098;2023-04-10T15:44:51;1.88;;;1.75;;